sensor_id;sensor_type;location;lat;lon;timestamp;pressure;altitude;pressure_sealevel;temperature
68952;BMP180;56000;51.146;17.112;2023-02-03T00:01:25;100939.40;;;-1.20
68952;BMP180;56000;51.146;17.112;2023-02-03T00:03:58;100940.00;;;-1.20
68952;BMP180;56000;51.146;17.112;2023-02-03T00:06:32;100935.40;;;-1.10
68952;BMP180;56000;51.146;17.112;2023-02-03T00:09:05;100947.80;;;-1.10
68952;BMP180;56000;51.146;17.112;2023-02-03T00:11:38;100946.20;;;-1.02
68952;BMP180;56000;51.146;17.112;2023-02-03T00:14:12;100945.60;;;-1.00
68952;BMP180;56000;51.146;17.112;2023-02-03T00:16:45;100940.00;;;-1.00
68952;BMP180;56000;51.146;17.112;2023-02-03T00:19:18;100937.40;;;-0.90
68952;BMP180;56000;51.146;17.112;2023-02-03T00:21:51;100941.40;;;-0.90
68952;BMP180;56000;51.146;17.112;2023-02-03T00:24:24;100938.80;;;-0.90
68952;BMP180;56000;51.146;17.112;2023-02-03T00:26:57;100935.00;;;-0.90
68952;BMP180;56000;51.146;17.112;2023-02-03T00:29:31;100936.80;;;-0.90
68952;BMP180;56000;51.146;17.112;2023-02-03T00:32:04;100940.40;;;-0.90
68952;BMP180;56000;51.146;17.112;2023-02-03T00:34:38;100935.40;;;-0.90
68952;BMP180;56000;51.146;17.112;2023-02-03T00:37:12;100930.40;;;-0.90
68952;BMP180;56000;51.146;17.112;2023-02-03T00:39:45;100932.80;;;-0.88
68952;BMP180;56000;51.146;17.112;2023-02-03T00:42:18;100931.40;;;-0.82
68952;BMP180;56000;51.146;17.112;2023-02-03T00:44:52;100928.60;;;-0.80
68952;BMP180;56000;51.146;17.112;2023-02-03T00:47:25;100928.40;;;-0.80
68952;BMP180;56000;51.146;17.112;2023-02-03T00:49:58;100927.60;;;-0.80
68952;BMP180;56000;51.146;17.112;2023-02-03T00:52:31;100924.40;;;-0.70
68952;BMP180;56000;51.146;17.112;2023-02-03T00:55:07;100914.80;;;-0.70
68952;BMP180;56000;51.146;17.112;2023-02-03T00:57:40;100909.20;;;-0.70
68952;BMP180;56000;51.146;17.112;2023-02-03T01:00:16;100904.80;;;-0.68
68952;BMP180;56000;51.146;17.112;2023-02-03T01:02:50;100905.00;;;-0.60
68952;BMP180;56000;51.146;17.112;2023-02-03T01:05:23;100903.20;;;-0.60
68952;BMP180;56000;51.146;17.112;2023-02-03T01:07:57;100903.00;;;-0.60
68952;BMP180;56000;51.146;17.112;2023-02-03T01:10:30;100902.20;;;-0.60
68952;BMP180;56000;51.146;17.112;2023-02-03T01:13:03;100896.40;;;-0.62
68952;BMP180;56000;51.146;17.112;2023-02-03T01:15:36;100899.80;;;-0.60
68952;BMP180;56000;51.146;17.112;2023-02-03T01:18:09;100889.80;;;-0.70
68952;BMP180;56000;51.146;17.112;2023-02-03T01:20:42;100888.60;;;-0.68
68952;BMP180;56000;51.146;17.112;2023-02-03T01:23:15;100889.40;;;-0.68
68952;BMP180;56000;51.146;17.112;2023-02-03T01:25:48;100884.20;;;-0.70
68952;BMP180;56000;51.146;17.112;2023-02-03T01:28:22;100877.80;;;-0.70
68952;BMP180;56000;51.146;17.112;2023-02-03T01:30:56;100871.80;;;-0.70
68952;BMP180;56000;51.146;17.112;2023-02-03T01:33:29;100867.40;;;-0.70
68952;BMP180;56000;51.146;17.112;2023-02-03T01:36:03;100865.60;;;-0.70
68952;BMP180;56000;51.146;17.112;2023-02-03T01:38:38;100859.60;;;-0.78
68952;BMP180;56000;51.146;17.112;2023-02-03T01:41:18;100862.60;;;-0.80
68952;BMP180;56000;51.146;17.112;2023-02-03T01:43:54;100855.80;;;-0.80
68952;BMP180;56000;51.146;17.112;2023-02-03T01:46:36;100842.00;;;-0.80
68952;BMP180;56000;51.146;17.112;2023-02-03T01:49:14;100831.40;;;-0.80
68952;BMP180;56000;51.146;17.112;2023-02-03T01:51:49;100817.80;;;-0.80
68952;BMP180;56000;51.146;17.112;2023-02-03T01:54:27;100816.80;;;-0.80
68952;BMP180;56000;51.146;17.112;2023-02-03T01:57:05;100811.80;;;-0.80
68952;BMP180;56000;51.146;17.112;2023-02-03T01:59:40;100804.40;;;-0.80
68952;BMP180;56000;51.146;17.112;2023-02-03T02:02:14;100803.20;;;-0.80
68952;BMP180;56000;51.146;17.112;2023-02-03T02:04:55;100794.60;;;-0.78
68952;BMP180;56000;51.146;17.112;2023-02-03T02:07:31;100787.80;;;-0.72
68952;BMP180;56000;51.146;17.112;2023-02-03T02:10:07;100777.20;;;-0.70
68952;BMP180;56000;51.146;17.112;2023-02-03T02:12:41;100766.00;;;-0.70
68952;BMP180;56000;51.146;17.112;2023-02-03T02:15:14;100761.20;;;-0.70
68952;BMP180;56000;51.146;17.112;2023-02-03T02:18:14;100754.00;;;-0.64
68952;BMP180;56000;51.146;17.112;2023-02-03T02:21:08;100760.20;;;-0.60
68952;BMP180;56000;51.146;17.112;2023-02-03T02:24:33;100761.00;;;-0.60
68952;BMP180;56000;51.146;17.112;2023-02-03T02:27:25;100766.80;;;-0.50
68952;BMP180;56000;51.146;17.112;2023-02-03T02:30:38;100771.40;;;-0.50
68952;BMP180;56000;51.146;17.112;2023-02-03T02:33:26;100769.40;;;-0.48
68952;BMP180;56000;51.146;17.112;2023-02-03T02:36:10;100754.00;;;-0.40
68952;BMP180;56000;51.146;17.112;2023-02-03T02:38:58;100757.00;;;-0.40
68952;BMP180;56000;51.146;17.112;2023-02-03T02:41:41;100755.80;;;-0.40
68952;BMP180;56000;51.146;17.112;2023-02-03T02:44:24;100758.00;;;-0.30
68952;BMP180;56000;51.146;17.112;2023-02-03T02:47:01;100736.80;;;-0.30
68952;BMP180;56000;51.146;17.112;2023-02-03T02:49:39;100736.40;;;-0.30
68952;BMP180;56000;51.146;17.112;2023-02-03T02:52:16;100729.60;;;-0.30
68952;BMP180;56000;51.146;17.112;2023-02-03T02:54:54;100714.40;;;-0.26
68952;BMP180;56000;51.146;17.112;2023-02-03T02:57:29;100708.60;;;-0.30
68952;BMP180;56000;51.146;17.112;2023-02-03T03:00:05;100700.00;;;-0.26
68952;BMP180;56000;51.146;17.112;2023-02-03T03:02:39;100688.20;;;-0.28
68952;BMP180;56000;51.146;17.112;2023-02-03T03:05:12;100685.60;;;-0.28
68952;BMP180;56000;51.146;17.112;2023-02-03T03:07:53;100682.40;;;-0.22
68952;BMP180;56000;51.146;17.112;2023-02-03T03:10:31;100672.80;;;-0.28
68952;BMP180;56000;51.146;17.112;2023-02-03T03:13:09;100667.60;;;-0.28
68952;BMP180;56000;51.146;17.112;2023-02-03T03:15:45;100654.60;;;-0.20
68952;BMP180;56000;51.146;17.112;2023-02-03T03:18:22;100648.60;;;-0.20
68952;BMP180;56000;51.146;17.112;2023-02-03T03:20:58;100645.20;;;-0.22
68952;BMP180;56000;51.146;17.112;2023-02-03T03:23:38;100627.80;;;-0.20
68952;BMP180;56000;51.146;17.112;2023-02-03T03:26:15;100625.00;;;-0.20
68952;BMP180;56000;51.146;17.112;2023-02-03T03:28:55;100627.20;;;-0.20
68952;BMP180;56000;51.146;17.112;2023-02-03T03:31:32;100628.20;;;-0.20
68952;BMP180;56000;51.146;17.112;2023-02-03T03:34:05;100630.00;;;-0.20
68952;BMP180;56000;51.146;17.112;2023-02-03T03:36:45;100634.40;;;-0.12
68952;BMP180;56000;51.146;17.112;2023-02-03T03:39:25;100625.80;;;-0.10
68952;BMP180;56000;51.146;17.112;2023-02-03T03:42:05;100618.60;;;-0.10
68952;BMP180;56000;51.146;17.112;2023-02-03T03:44:46;100615.20;;;-0.10
68952;BMP180;56000;51.146;17.112;2023-02-03T03:47:27;100625.80;;;-0.10
68952;BMP180;56000;51.146;17.112;2023-02-03T03:50:04;100629.60;;;-0.10
68952;BMP180;56000;51.146;17.112;2023-02-03T03:52:40;100626.40;;;-0.02
68952;BMP180;56000;51.146;17.112;2023-02-03T03:55:15;100619.60;;;0.00
68952;BMP180;56000;51.146;17.112;2023-02-03T03:57:55;100610.80;;;0.00
68952;BMP180;56000;51.146;17.112;2023-02-03T04:00:33;100607.40;;;0.02
68952;BMP180;56000;51.146;17.112;2023-02-03T04:03:12;100607.20;;;0.04
68952;BMP180;56000;51.146;17.112;2023-02-03T04:05:47;100602.40;;;0.10
68952;BMP180;56000;51.146;17.112;2023-02-03T04:08:20;100597.20;;;0.10
68952;BMP180;56000;51.146;17.112;2023-02-03T04:10:54;100600.60;;;0.10
68952;BMP180;56000;51.146;17.112;2023-02-03T04:13:26;100598.40;;;0.10
68952;BMP180;56000;51.146;17.112;2023-02-03T04:16:00;100602.60;;;0.10
68952;BMP180;56000;51.146;17.112;2023-02-03T04:18:33;100601.80;;;0.10
68952;BMP180;56000;51.146;17.112;2023-02-03T04:21:06;100598.80;;;0.18
68952;BMP180;56000;51.146;17.112;2023-02-03T04:23:39;100598.60;;;0.20
68952;BMP180;56000;51.146;17.112;2023-02-03T04:26:12;100588.80;;;0.20
68952;BMP180;56000;51.146;17.112;2023-02-03T04:28:45;100582.60;;;0.20
68952;BMP180;56000;51.146;17.112;2023-02-03T04:31:18;100575.20;;;0.20
68952;BMP180;56000;51.146;17.112;2023-02-03T04:33:51;100562.80;;;0.20
68952;BMP180;56000;51.146;17.112;2023-02-03T04:36:24;100555.40;;;0.22
68952;BMP180;56000;51.146;17.112;2023-02-03T04:38:57;100551.20;;;0.28
68952;BMP180;56000;51.146;17.112;2023-02-03T04:41:31;100548.20;;;0.30
68952;BMP180;56000;51.146;17.112;2023-02-03T04:44:04;100555.40;;;0.30
68952;BMP180;56000;51.146;17.112;2023-02-03T04:46:37;100538.80;;;0.30
68952;BMP180;56000;51.146;17.112;2023-02-03T04:49:10;100526.40;;;0.30
68952;BMP180;56000;51.146;17.112;2023-02-03T04:51:43;100517.60;;;0.30
68952;BMP180;56000;51.146;17.112;2023-02-03T04:54:16;100520.20;;;0.30
68952;BMP180;56000;51.146;17.112;2023-02-03T04:56:49;100513.40;;;0.30
68952;BMP180;56000;51.146;17.112;2023-02-03T04:59:23;100519.00;;;0.34
68952;BMP180;56000;51.146;17.112;2023-02-03T05:01:56;100516.60;;;0.40
68952;BMP180;56000;51.146;17.112;2023-02-03T05:04:29;100503.20;;;0.40
68952;BMP180;56000;51.146;17.112;2023-02-03T05:07:02;100500.60;;;0.40
68952;BMP180;56000;51.146;17.112;2023-02-03T05:09:35;100491.80;;;0.50
68952;BMP180;56000;51.146;17.112;2023-02-03T05:12:09;100484.00;;;0.50
68952;BMP180;56000;51.146;17.112;2023-02-03T05:14:42;100483.00;;;0.50
68952;BMP180;56000;51.146;17.112;2023-02-03T05:17:15;100479.80;;;0.60
68952;BMP180;56000;51.146;17.112;2023-02-03T05:19:48;100476.20;;;0.60
68952;BMP180;56000;51.146;17.112;2023-02-03T05:22:21;100473.80;;;0.60
68952;BMP180;56000;51.146;17.112;2023-02-03T05:24:55;100471.20;;;0.60
68952;BMP180;56000;51.146;17.112;2023-02-03T05:27:28;100466.20;;;0.70
68952;BMP180;56000;51.146;17.112;2023-02-03T05:30:02;100463.80;;;0.70
68952;BMP180;56000;51.146;17.112;2023-02-03T05:32:35;100463.00;;;0.70
68952;BMP180;56000;51.146;17.112;2023-02-03T05:35:09;100461.80;;;0.78
68952;BMP180;56000;51.146;17.112;2023-02-03T05:37:44;100455.00;;;0.80
68952;BMP180;56000;51.146;17.112;2023-02-03T05:40:18;100452.40;;;0.80
68952;BMP180;56000;51.146;17.112;2023-02-03T05:43:08;100453.00;;;0.88
68952;BMP180;56000;51.146;17.112;2023-02-03T05:45:42;100446.20;;;0.90
68952;BMP180;56000;51.146;17.112;2023-02-03T05:48:15;100447.00;;;0.90
68952;BMP180;56000;51.146;17.112;2023-02-03T05:50:48;100446.60;;;0.90
68952;BMP180;56000;51.146;17.112;2023-02-03T05:53:21;100433.40;;;0.82
68952;BMP180;56000;51.146;17.112;2023-02-03T05:55:54;100430.20;;;0.80
68952;BMP180;56000;51.146;17.112;2023-02-03T05:58:27;100420.20;;;0.80
68952;BMP180;56000;51.146;17.112;2023-02-03T06:01:00;100413.60;;;0.80
68952;BMP180;56000;51.146;17.112;2023-02-03T06:03:33;100402.40;;;0.80
68952;BMP180;56000;51.146;17.112;2023-02-03T06:06:07;100401.40;;;0.70
68952;BMP180;56000;51.146;17.112;2023-02-03T06:08:40;100405.00;;;0.70
68952;BMP180;56000;51.146;17.112;2023-02-03T06:11:13;100395.20;;;0.70
68952;BMP180;56000;51.146;17.112;2023-02-03T06:13:47;100388.60;;;0.70
68952;BMP180;56000;51.146;17.112;2023-02-03T06:16:20;100384.40;;;0.70
68952;BMP180;56000;51.146;17.112;2023-02-03T06:18:56;100368.40;;;0.70
68952;BMP180;56000;51.146;17.112;2023-02-03T06:21:31;100359.80;;;0.70
68952;BMP180;56000;51.146;17.112;2023-02-03T06:24:04;100367.00;;;0.70
68952;BMP180;56000;51.146;17.112;2023-02-03T06:26:38;100360.40;;;0.70
68952;BMP180;56000;51.146;17.112;2023-02-03T06:29:11;100359.40;;;0.70
68952;BMP180;56000;51.146;17.112;2023-02-03T06:31:44;100355.80;;;0.76
68952;BMP180;56000;51.146;17.112;2023-02-03T06:34:17;100348.60;;;0.80
68952;BMP180;56000;51.146;17.112;2023-02-03T06:36:50;100340.20;;;0.80
68952;BMP180;56000;51.146;17.112;2023-02-03T06:39:23;100335.60;;;0.80
68952;BMP180;56000;51.146;17.112;2023-02-03T06:41:56;100331.60;;;0.80
68952;BMP180;56000;51.146;17.112;2023-02-03T06:44:30;100329.60;;;0.82
68952;BMP180;56000;51.146;17.112;2023-02-03T06:47:03;100317.60;;;0.88
68952;BMP180;56000;51.146;17.112;2023-02-03T06:49:36;100311.20;;;0.90
68952;BMP180;56000;51.146;17.112;2023-02-03T06:52:10;100296.60;;;0.90
68952;BMP180;56000;51.146;17.112;2023-02-03T06:54:43;100287.20;;;0.90
68952;BMP180;56000;51.146;17.112;2023-02-03T06:57:16;100278.00;;;0.90
68952;BMP180;56000;51.146;17.112;2023-02-03T06:59:49;100266.20;;;1.00
68952;BMP180;56000;51.146;17.112;2023-02-03T07:02:22;100256.40;;;1.00
68952;BMP180;56000;51.146;17.112;2023-02-03T07:04:55;100253.00;;;1.00
68952;BMP180;56000;51.146;17.112;2023-02-03T07:07:28;100245.40;;;1.00
68952;BMP180;56000;51.146;17.112;2023-02-03T07:10:03;100246.80;;;1.10
68952;BMP180;56000;51.146;17.112;2023-02-03T07:12:36;100242.20;;;1.10
68952;BMP180;56000;51.146;17.112;2023-02-03T07:15:11;100238.80;;;1.10
68952;BMP180;56000;51.146;17.112;2023-02-03T07:17:45;100234.40;;;1.16
68952;BMP180;56000;51.146;17.112;2023-02-03T07:20:25;100236.40;;;1.20
68952;BMP180;56000;51.146;17.112;2023-02-03T07:23:00;100220.00;;;1.20
68952;BMP180;56000;51.146;17.112;2023-02-03T07:25:33;100215.80;;;1.24
68952;BMP180;56000;51.146;17.112;2023-02-03T07:28:06;100193.00;;;1.30
68952;BMP180;56000;51.146;17.112;2023-02-03T07:30:40;100186.80;;;1.30
68952;BMP180;56000;51.146;17.112;2023-02-03T07:33:13;100179.80;;;1.30
68952;BMP180;56000;51.146;17.112;2023-02-03T07:35:52;100173.00;;;1.32
68952;BMP180;56000;51.146;17.112;2023-02-03T07:38:26;100168.00;;;1.40
68952;BMP180;56000;51.146;17.112;2023-02-03T07:40:59;100161.20;;;1.40
68952;BMP180;56000;51.146;17.112;2023-02-03T07:43:32;100154.60;;;1.40
68952;BMP180;56000;51.146;17.112;2023-02-03T07:46:05;100149.40;;;1.48
68952;BMP180;56000;51.146;17.112;2023-02-03T07:48:39;100139.60;;;1.50
68952;BMP180;56000;51.146;17.112;2023-02-03T07:51:12;100137.00;;;1.50
68952;BMP180;56000;51.146;17.112;2023-02-03T07:53:45;100126.00;;;1.50
68952;BMP180;56000;51.146;17.112;2023-02-03T07:56:18;100119.80;;;1.50
68952;BMP180;56000;51.146;17.112;2023-02-03T07:58:54;100111.40;;;1.50
68952;BMP180;56000;51.146;17.112;2023-02-03T08:01:30;100101.20;;;1.50
68952;BMP180;56000;51.146;17.112;2023-02-03T08:04:04;100091.80;;;1.50
68952;BMP180;56000;51.146;17.112;2023-02-03T08:06:39;100089.40;;;1.50
68952;BMP180;56000;51.146;17.112;2023-02-03T08:09:12;100088.00;;;1.50
68952;BMP180;56000;51.146;17.112;2023-02-03T08:11:45;100085.80;;;1.50
68952;BMP180;56000;51.146;17.112;2023-02-03T08:14:19;100079.00;;;1.50
68952;BMP180;56000;51.146;17.112;2023-02-03T08:16:52;100074.40;;;1.50
68952;BMP180;56000;51.146;17.112;2023-02-03T08:19:25;100061.60;;;1.60
68952;BMP180;56000;51.146;17.112;2023-02-03T08:21:58;100055.40;;;1.60
68952;BMP180;56000;51.146;17.112;2023-02-03T08:24:31;100044.80;;;1.60
68952;BMP180;56000;51.146;17.112;2023-02-03T08:27:04;100028.80;;;1.60
68952;BMP180;56000;51.146;17.112;2023-02-03T08:29:38;100023.60;;;1.68
68952;BMP180;56000;51.146;17.112;2023-02-03T08:32:14;100026.00;;;1.70
68952;BMP180;56000;51.146;17.112;2023-02-03T08:34:50;100020.00;;;1.70
68952;BMP180;56000;51.146;17.112;2023-02-03T08:37:24;100007.40;;;1.70
68952;BMP180;56000;51.146;17.112;2023-02-03T08:39:57;100009.60;;;1.70
68952;BMP180;56000;51.146;17.112;2023-02-03T08:42:31;100001.60;;;1.70
68952;BMP180;56000;51.146;17.112;2023-02-03T08:45:05;99997.60;;;1.70
68952;BMP180;56000;51.146;17.112;2023-02-03T08:47:38;99987.80;;;1.70
68952;BMP180;56000;51.146;17.112;2023-02-03T08:50:13;99984.20;;;1.80
68952;BMP180;56000;51.146;17.112;2023-02-03T08:52:46;99975.60;;;1.80
68952;BMP180;56000;51.146;17.112;2023-02-03T08:55:19;99968.60;;;1.90
68952;BMP180;56000;51.146;17.112;2023-02-03T08:57:52;99963.80;;;1.90
68952;BMP180;56000;51.146;17.112;2023-02-03T09:00:26;99944.00;;;1.92
68952;BMP180;56000;51.146;17.112;2023-02-03T09:02:59;99935.00;;;1.90
68952;BMP180;56000;51.146;17.112;2023-02-03T09:05:34;99934.60;;;1.90
68952;BMP180;56000;51.146;17.112;2023-02-03T09:08:08;99925.00;;;1.90
68952;BMP180;56000;51.146;17.112;2023-02-03T09:10:41;99938.20;;;1.90
68952;BMP180;56000;51.146;17.112;2023-02-03T09:13:14;99930.00;;;2.00
68952;BMP180;56000;51.146;17.112;2023-02-03T09:15:48;99926.80;;;2.02
68952;BMP180;56000;51.146;17.112;2023-02-03T09:18:21;99908.00;;;2.10
68952;BMP180;56000;51.146;17.112;2023-02-03T09:21:00;99898.60;;;2.10
68952;BMP180;56000;51.146;17.112;2023-02-03T09:23:34;99891.80;;;2.10
68952;BMP180;56000;51.146;17.112;2023-02-03T09:26:09;99894.00;;;2.12
68952;BMP180;56000;51.146;17.112;2023-02-03T09:28:42;99889.40;;;2.20
68952;BMP180;56000;51.146;17.112;2023-02-03T09:31:16;99891.60;;;2.20
68952;BMP180;56000;51.146;17.112;2023-02-03T09:33:50;99887.40;;;2.30
68952;BMP180;56000;51.146;17.112;2023-02-03T09:36:23;99879.20;;;2.30
68952;BMP180;56000;51.146;17.112;2023-02-03T09:38:57;99864.40;;;2.30
68952;BMP180;56000;51.146;17.112;2023-02-03T09:41:48;99864.00;;;2.32
68952;BMP180;56000;51.146;17.112;2023-02-03T09:44:28;99852.40;;;2.40
68952;BMP180;56000;51.146;17.112;2023-02-03T09:47:11;99847.20;;;2.40
68952;BMP180;56000;51.146;17.112;2023-02-03T09:49:49;99826.00;;;2.40
68952;BMP180;56000;51.146;17.112;2023-02-03T09:52:24;99822.00;;;2.40
68952;BMP180;56000;51.146;17.112;2023-02-03T09:55:03;99830.80;;;2.40
68952;BMP180;56000;51.146;17.112;2023-02-03T09:57:44;99817.80;;;2.50
68952;BMP180;56000;51.146;17.112;2023-02-03T10:00:25;99802.60;;;2.50
68952;BMP180;56000;51.146;17.112;2023-02-03T10:03:05;99812.40;;;2.50
68952;BMP180;56000;51.146;17.112;2023-02-03T10:06:04;99804.40;;;2.50
68952;BMP180;56000;51.146;17.112;2023-02-03T10:08:54;99786.00;;;2.50
68952;BMP180;56000;51.146;17.112;2023-02-03T10:11:44;99780.20;;;2.50
68952;BMP180;56000;51.146;17.112;2023-02-03T10:14:37;99771.20;;;2.60
68952;BMP180;56000;51.146;17.112;2023-02-03T10:17:26;99751.60;;;2.68
68952;BMP180;56000;51.146;17.112;2023-02-03T10:20:10;99747.00;;;2.70
68952;BMP180;56000;51.146;17.112;2023-02-03T10:22:52;99731.20;;;2.70
68952;BMP180;56000;51.146;17.112;2023-02-03T10:25:30;99723.20;;;2.70
68952;BMP180;56000;51.146;17.112;2023-02-03T10:28:12;99717.40;;;2.74
68952;BMP180;56000;51.146;17.112;2023-02-03T10:30:50;99707.80;;;2.80
68952;BMP180;56000;51.146;17.112;2023-02-03T10:33:28;99697.00;;;2.80
68952;BMP180;56000;51.146;17.112;2023-02-03T10:36:10;99686.40;;;2.80
68952;BMP180;56000;51.146;17.112;2023-02-03T10:39:00;99682.60;;;2.80
68952;BMP180;56000;51.146;17.112;2023-02-03T10:41:35;99669.20;;;2.80
68952;BMP180;56000;51.146;17.112;2023-02-03T10:44:12;99656.80;;;2.80
68952;BMP180;56000;51.146;17.112;2023-02-03T10:46:46;99642.20;;;2.90
68952;BMP180;56000;51.146;17.112;2023-02-03T10:49:19;99631.00;;;2.90
68952;BMP180;56000;51.146;17.112;2023-02-03T10:51:56;99620.40;;;2.90
68952;BMP180;56000;51.146;17.112;2023-02-03T10:54:34;99615.80;;;2.90
68952;BMP180;56000;51.146;17.112;2023-02-03T10:57:12;99609.80;;;3.00
68952;BMP180;56000;51.146;17.112;2023-02-03T10:59:48;99600.20;;;3.00
68952;BMP180;56000;51.146;17.112;2023-02-03T11:02:27;99595.60;;;3.08
68952;BMP180;56000;51.146;17.112;2023-02-03T11:05:23;99587.60;;;3.10
68952;BMP180;56000;51.146;17.112;2023-02-03T11:07:57;99579.80;;;3.10
68952;BMP180;56000;51.146;17.112;2023-02-03T11:10:36;99570.40;;;3.10
68952;BMP180;56000;51.146;17.112;2023-02-03T11:13:19;99565.20;;;3.10
68952;BMP180;56000;51.146;17.112;2023-02-03T11:15:54;99556.00;;;3.10
68952;BMP180;56000;51.146;17.112;2023-02-03T11:18:41;99547.60;;;3.10
68952;BMP180;56000;51.146;17.112;2023-02-03T11:21:16;99534.60;;;3.20
68952;BMP180;56000;51.146;17.112;2023-02-03T11:23:59;99523.60;;;3.20
68952;BMP180;56000;51.146;17.112;2023-02-03T11:26:33;99510.80;;;3.28
68952;BMP180;56000;51.146;17.112;2023-02-03T11:29:06;99500.40;;;3.30
68952;BMP180;56000;51.146;17.112;2023-02-03T11:31:47;99501.00;;;3.38
68952;BMP180;56000;51.146;17.112;2023-02-03T11:34:20;99488.00;;;3.40
68952;BMP180;56000;51.146;17.112;2023-02-03T11:36:55;99486.00;;;3.50
68952;BMP180;56000;51.146;17.112;2023-02-03T11:39:28;99473.60;;;3.50
68952;BMP180;56000;51.146;17.112;2023-02-03T11:42:21;99462.20;;;3.60
68952;BMP180;56000;51.146;17.112;2023-02-03T11:44:53;99461.80;;;3.70
68952;BMP180;56000;51.146;17.112;2023-02-03T11:47:46;99456.00;;;3.70
68952;BMP180;56000;51.146;17.112;2023-02-03T11:50:23;99451.20;;;3.80
68952;BMP180;56000;51.146;17.112;2023-02-03T11:53:20;99446.20;;;3.90
68952;BMP180;56000;51.146;17.112;2023-02-03T11:56:01;99429.80;;;4.00
68952;BMP180;56000;51.146;17.112;2023-02-03T11:59:00;99436.80;;;4.10
68952;BMP180;56000;51.146;17.112;2023-02-03T12:01:59;99429.40;;;4.20
68952;BMP180;56000;51.146;17.112;2023-02-03T12:04:44;99416.60;;;4.30
68952;BMP180;56000;51.146;17.112;2023-02-03T12:07:37;99404.80;;;4.40
68952;BMP180;56000;51.146;17.112;2023-02-03T12:10:15;99394.00;;;4.54
68952;BMP180;56000;51.146;17.112;2023-02-03T12:12:54;99391.00;;;4.60
68952;BMP180;56000;51.146;17.112;2023-02-03T12:15:41;99389.80;;;4.70
68952;BMP180;56000;51.146;17.112;2023-02-03T12:18:21;99389.00;;;4.80
68952;BMP180;56000;51.146;17.112;2023-02-03T12:21:03;99381.40;;;4.90
68952;BMP180;56000;51.146;17.112;2023-02-03T12:23:43;99381.00;;;4.94
68952;BMP180;56000;51.146;17.112;2023-02-03T12:26:19;99371.20;;;5.10
68952;BMP180;56000;51.146;17.112;2023-02-03T12:29:00;99358.00;;;5.20
68952;BMP180;56000;51.146;17.112;2023-02-03T12:31:35;99345.40;;;5.30
68952;BMP180;56000;51.146;17.112;2023-02-03T12:34:14;99343.80;;;5.40
68952;BMP180;56000;51.146;17.112;2023-02-03T12:36:48;99336.40;;;5.60
68952;BMP180;56000;51.146;17.112;2023-02-03T12:39:26;99345.60;;;5.80
68952;BMP180;56000;51.146;17.112;2023-02-03T12:42:00;99328.60;;;5.92
68952;BMP180;56000;51.146;17.112;2023-02-03T12:44:34;99314.60;;;6.10
68952;BMP180;56000;51.146;17.112;2023-02-03T12:47:14;99316.40;;;6.30
68952;BMP180;56000;51.146;17.112;2023-02-03T12:49:49;99304.20;;;6.40
68952;BMP180;56000;51.146;17.112;2023-02-03T12:52:25;99304.40;;;6.50
68952;BMP180;56000;51.146;17.112;2023-02-03T12:55:02;99295.40;;;6.60
68952;BMP180;56000;51.146;17.112;2023-02-03T12:57:37;99286.00;;;6.56
68952;BMP180;56000;51.146;17.112;2023-02-03T13:00:19;99280.40;;;6.50
68952;BMP180;56000;51.146;17.112;2023-02-03T13:03:02;99280.00;;;6.50
68952;BMP180;56000;51.146;17.112;2023-02-03T13:05:42;99278.00;;;6.50
68952;BMP180;56000;51.146;17.112;2023-02-03T13:08:17;99272.60;;;6.50
68952;BMP180;56000;51.146;17.112;2023-02-03T13:10:54;99279.00;;;6.50
68952;BMP180;56000;51.146;17.112;2023-02-03T13:13:31;99278.80;;;6.40
68952;BMP180;56000;51.146;17.112;2023-02-03T13:16:07;99284.40;;;6.40
68952;BMP180;56000;51.146;17.112;2023-02-03T13:18:41;99281.80;;;6.32
68952;BMP180;56000;51.146;17.112;2023-02-03T13:21:15;99282.60;;;6.30
68952;BMP180;56000;51.146;17.112;2023-02-03T13:23:46;99284.20;;;6.30
68952;BMP180;56000;51.146;17.112;2023-02-03T13:29:52;99270.60;;;6.30
68952;BMP180;56000;51.146;17.112;2023-02-03T13:32:36;99265.40;;;6.32
68952;BMP180;56000;51.146;17.112;2023-02-03T13:35:22;99269.00;;;6.40
68952;BMP180;56000;51.146;17.112;2023-02-03T13:38:18;99283.80;;;6.44
68952;BMP180;56000;51.146;17.112;2023-02-03T13:41:00;99292.00;;;6.46
68952;BMP180;56000;51.146;17.112;2023-02-03T13:43:34;99309.00;;;6.48
68952;BMP180;56000;51.146;17.112;2023-02-03T13:46:17;99309.60;;;6.44
68952;BMP180;56000;51.146;17.112;2023-02-03T13:48:49;99290.00;;;6.50
68952;BMP180;56000;51.146;17.112;2023-02-03T13:51:23;99286.60;;;6.50
68952;BMP180;56000;51.146;17.112;2023-02-03T13:54:01;99278.60;;;6.68
68952;BMP180;56000;51.146;17.112;2023-02-03T13:56:34;99281.80;;;6.80
68952;BMP180;56000;51.146;17.112;2023-02-03T13:59:25;99292.40;;;6.90
68952;BMP180;56000;51.146;17.112;2023-02-03T14:05:03;99312.80;;;6.80
68952;BMP180;56000;51.146;17.112;2023-02-03T14:07:36;99308.20;;;6.80
68952;BMP180;56000;51.146;17.112;2023-02-03T14:10:21;99314.40;;;6.80
68952;BMP180;56000;51.146;17.112;2023-02-03T14:13:00;99314.80;;;6.80
68952;BMP180;56000;51.146;17.112;2023-02-03T14:15:33;99312.40;;;6.70
68952;BMP180;56000;51.146;17.112;2023-02-03T14:18:31;99316.80;;;6.70
68952;BMP180;56000;51.146;17.112;2023-02-03T14:21:19;99313.00;;;6.70
68952;BMP180;56000;51.146;17.112;2023-02-03T14:24:00;99297.20;;;6.70
68952;BMP180;56000;51.146;17.112;2023-02-03T14:26:35;99310.80;;;6.70
68952;BMP180;56000;51.146;17.112;2023-02-03T14:29:10;99314.20;;;6.60
68952;BMP180;56000;51.146;17.112;2023-02-03T14:31:55;99328.60;;;6.50
68952;BMP180;56000;51.146;17.112;2023-02-03T14:34:31;99326.80;;;6.50
68952;BMP180;56000;51.146;17.112;2023-02-03T14:37:18;99314.00;;;6.50
68952;BMP180;56000;51.146;17.112;2023-02-03T14:40:23;99313.20;;;6.40
68952;BMP180;56000;51.146;17.112;2023-02-03T14:43:20;99321.60;;;6.40
68952;BMP180;56000;51.146;17.112;2023-02-03T14:46:13;99319.60;;;6.38
68952;BMP180;56000;51.146;17.112;2023-02-03T14:49:11;99326.20;;;6.30
68952;BMP180;56000;51.146;17.112;2023-02-03T14:51:53;99332.40;;;6.30
68952;BMP180;56000;51.146;17.112;2023-02-03T14:54:44;99332.00;;;6.30
68952;BMP180;56000;51.146;17.112;2023-02-03T14:57:25;99342.60;;;6.30
68952;BMP180;56000;51.146;17.112;2023-02-03T15:00:03;99339.00;;;6.30
68952;BMP180;56000;51.146;17.112;2023-02-03T15:02:35;99351.00;;;6.26